Time;durP1;ratioP1;P1;durP2;ratioP2;P2;SDS_P1;SDS_P2;PMS_P1;PMS_P2;Temp;Humidity;BMP_temperature;BMP_pressure;BME280_temperature;BME280_humidity;BME280_pressure;Samples;Min_cycle;Max_cycle;Signal;HPM_P1;HPM_P2
2022/06/08 00:00:59;;;;;;;13.57;7.97;;;;;;;15.43;95.48;98947.94;8509663;27;20054;-73
2022/06/08 00:05:00;;;;;;;9.45;6.53;;;;;;;15.45;95.78;98945.63;8491266;27;20046;-72
2022/06/08 00:09:01;;;;;;;11.45;8.18;;;;;;;15.46;95.74;98941.78;8526473;27;20061;-72
2022/06/08 00:13:04;;;;;;;12.15;9.23;;;;;;;15.46;95.57;98941.78;8492651;27;20043;-72
2022/06/08 00:17:05;;;;;;;11.02;8.57;;;;;;;15.45;95.70;98945.63;8470384;27;20488;-72
2022/06/08 00:21:07;;;;;;;19.92;11.38;;;;;;;15.47;95.96;98954.25;8524523;27;20054;-72
2022/06/08 00:25:08;;;;;;;35.05;21.52;;;;;;;15.48;96.35;98950.41;8524998;27;20481;-73
2022/06/08 00:29:10;;;;;;;33.13;20.23;;;;;;;15.50;96.89;98942.69;8491493;27;20068;-73
2022/06/08 00:33:10;;;;;;;39.60;22.98;;;;;;;15.55;97.32;98933.50;8525862;27;20067;-73
2022/06/08 00:37:12;;;;;;;43.17;24.77;;;;;;;15.58;97.78;98927.38;8524419;27;20697;-73
2022/06/08 00:41:15;;;;;;;43.30;25.67;;;;;;;15.60;99.58;98920.44;8520546;27;20074;-72
2022/06/08 00:45:21;;;;;;;44.40;27.67;;;;;;;15.61;99.93;98922.03;8520915;27;20038;-73
2022/06/08 00:49:42;;;;;;;54.80;29.17;;;;;;;15.66;100.00;98917.47;8509858;27;20053;-73
2022/06/08 00:53:55;;;;;;;49.22;28.27;;;;;;;15.68;100.00;98923.38;8486920;27;20039;-73
2022/06/08 00:57:59;;;;;;;60.22;29.60;;;;;;;15.70;100.00;98923.84;8526960;27;20038;-72
2022/06/08 01:02:03;;;;;;;57.53;29.40;;;;;;;15.70;100.00;98923.84;8451197;28;20044;-72
2022/06/08 01:06:06;;;;;;;62.00;31.08;;;;;;;15.70;100.00;98918.38;8433781;28;20092;-73
2022/06/08 01:10:15;;;;;;;62.53;31.65;;;;;;;15.73;100.00;98917.69;8454933;28;20418;-72
2022/06/08 01:14:18;;;;;;;61.90;32.28;;;;;;;15.73;100.00;98909.50;8421367;28;20541;-72
2022/06/08 01:18:19;;;;;;;63.95;32.65;;;;;;;15.70;100.00;98912.94;8453405;28;20350;-73
2022/06/08 01:22:20;;;;;;;59.70;30.40;;;;;;;15.70;100.00;98907.50;8440522;28;20310;-73
2022/06/08 01:26:28;;;;;;;62.97;33.25;;;;;;;15.69;100.00;98911.34;8457333;28;20221;-71
2022/06/08 01:30:41;;;;;;;60.85;32.15;;;;;;;15.72;100.00;98905.19;8449366;27;20047;-72
2022/06/08 01:34:54;;;;;;;69.63;34.85;;;;;;;15.70;100.00;98907.50;8531763;27;20042;-72
2022/06/08 01:39:24;;;;;;;68.90;35.45;;;;;;;15.69;100.00;98900.47;8533959;27;20051;-72
2022/06/08 01:43:50;;;;;;;67.28;35.25;;;;;;;15.70;100.00;98902.06;8528940;27;20066;-72
2022/06/08 01:48:29;;;;;;;64.43;33.85;;;;;;;15.69;100.00;98900.47;8530228;27;20042;-73
2022/06/08 01:52:36;;;;;;;63.00;32.15;;;;;;;15.67;100.00;98902.72;8531728;27;20412;-72
2022/06/08 01:57:08;;;;;;;61.28;32.63;;;;;;;15.67;100.00;98897.28;8526332;27;20050;-73
2022/06/08 02:01:20;;;;;;;55.67;31.23;;;;;;;15.66;100.00;98887.53;8529643;27;20055;-73
2022/06/08 02:05:23;;;;;;;56.60;32.13;;;;;;;15.63;100.00;98892.53;8513637;27;20083;-73
2022/06/08 02:09:33;;;;;;;51.22;29.77;;;;;;;15.65;100.00;98894.13;8528531;27;20389;-72
2022/06/08 02:13:54;;;;;;;50.95;30.10;;;;;;;15.58;100.00;98890.06;8533453;27;20050;-71
2022/06/08 02:17:57;;;;;;;57.55;31.35;;;;;;;15.59;100.00;98885.44;8512388;27;20039;-72
2022/06/08 02:22:09;;;;;;;54.75;32.28;;;;;;;15.54;100.00;98889.19;8514034;27;20054;-72
2022/06/08 02:26:17;;;;;;;58.75;34.22;;;;;;;15.52;100.00;98891.44;8531250;27;20039;-72
2022/06/08 02:30:21;;;;;;;54.33;31.58;;;;;;;15.50;100.00;98892.91;8508201;27;20053;-72
2022/06/08 02:34:33;;;;;;;58.92;33.83;;;;;;;15.48;100.00;98895.97;8530991;27;20039;-72
2022/06/08 02:38:37;;;;;;;58.03;33.17;;;;;;;15.47;100.00;98891.66;8510160;27;20047;-72
2022/06/08 02:42:44;;;;;;;57.70;33.40;;;;;;;15.48;100.00;98879.66;8480815;27;20046;-74
2022/06/08 02:46:48;;;;;;;70.03;35.35;;;;;;;15.46;100.00;98887.38;8510775;27;20035;-73
2022/06/08 02:50:55;;;;;;;58.83;33.28;;;;;;;15.46;100.00;98887.38;8529951;27;20035;-73
2022/06/08 02:54:57;;;;;;;55.92;31.90;;;;;;;15.46;100.00;98887.38;8527027;27;20047;-73
2022/06/08 02:59:12;;;;;;;51.13;31.05;;;;;;;15.47;100.00;98888.94;8486264;27;20265;-73
2022/06/08 03:03:20;;;;;;;47.90;28.63;;;;;;;15.49;100.00;98885.88;8530192;27;20147;-72
2022/06/08 03:07:25;;;;;;;45.72;27.40;;;;;;;15.48;100.00;98879.66;8525499;27;20137;-72
2022/06/08 03:11:31;;;;;;;47.92;27.17;;;;;;;15.49;100.00;98894.06;8532060;27;20051;-72
2022/06/08 03:15:33;;;;;;;47.85;27.75;;;;;;;15.49;100.00;98892.09;8531890;27;20042;-72
2022/06/08 03:19:35;;;;;;;45.65;27.83;;;;;;;15.50;100.00;98904.56;8527638;27;20039;-71
2022/06/08 03:23:36;;;;;;;41.67;25.77;;;;;;;15.48;100.00;98906.88;8459363;27;20045;-73
2022/06/08 03:27:37;;;;;;;45.65;25.67;;;;;;;15.48;100.00;98906.88;8520580;27;20043;-72
2022/06/08 03:31:38;;;;;;;49.60;24.83;;;;;;;15.48;100.00;98906.88;8493866;27;20050;-72
2022/06/08 03:35:40;;;;;;;42.78;25.30;;;;;;;15.48;100.00;98906.88;8528200;27;20142;-72
2022/06/08 03:39:41;;;;;;;44.45;25.30;;;;;;;15.49;100.00;98902.97;8523669;27;20081;-72
2022/06/08 03:43:42;;;;;;;37.80;23.48;;;;;;;15.50;100.00;98915.47;8529651;27;20074;-73
2022/06/08 03:47:46;;;;;;;38.88;23.88;;;;;;;15.52;100.00;98910.50;8529331;27;20396;-72
2022/06/08 03:51:47;;;;;;;42.20;24.55;;;;;;;15.53;100.00;98901.22;8466527;27;20388;-73
2022/06/08 03:55:49;;;;;;;41.17;26.48;;;;;;;15.55;100.00;98901.63;8526437;27;20035;-72
2022/06/08 03:59:51;;;;;;;44.17;25.42;;;;;;;15.55;100.00;98907.09;8476311;27;20054;-72
2022/06/08 04:03:53;;;;;;;42.55;26.13;;;;;;;15.59;100.00;98916.16;8471977;27;20091;-72
2022/06/08 04:07:53;;;;;;;37.10;23.65;;;;;;;15.65;100.00;98910.47;8511698;27;20493;-73
2022/06/08 04:11:55;;;;;;;41.42;24.13;;;;;;;15.70;100.00;98907.50;8523190;27;20093;-72
2022/06/08 04:15:55;;;;;;;40.05;24.10;;;;;;;15.76;100.00;98911.53;8455232;27;20465;-73
2022/06/08 04:19:57;;;;;;;38.40;22.08;;;;;;;15.85;100.00;98909.47;8519671;27;20050;-72
2022/06/08 04:24:00;;;;;;;33.58;22.02;;;;;;;15.92;100.00;98909.63;8482589;27;20047;-72
2022/06/08 04:28:01;;;;;;;41.50;24.63;;;;;;;15.97;100.00;98901.22;8505523;27;20043;-72
2022/06/08 04:32:04;;;;;;;38.80;23.67;;;;;;;16.04;100.00;98901.41;8505810;27;20477;-73
2022/06/08 04:36:06;;;;;;;38.55;23.83;;;;;;;16.14;100.00;98900.88;8511741;27;20058;-73
2022/06/08 04:40:11;;;;;;;43.08;24.92;;;;;;;16.22;100.00;98897.22;8515764;27;20042;-72
2022/06/08 04:44:13;;;;;;;42.20;23.70;;;;;;;16.30;99.98;98903.63;8530090;27;20473;-73
2022/06/08 04:48:14;;;;;;;40.17;25.30;;;;;;;16.34;100.00;98905.28;8530352;27;20043;-72
2022/06/08 04:52:15;;;;;;;35.92;23.42;;;;;;;16.42;99.75;98896.16;8526073;27;20050;-73
2022/06/08 04:56:16;;;;;;;37.83;23.83;;;;;;;16.47;99.80;98893.19;8529182;27;20038;-72
2022/06/08 05:00:21;;;;;;;30.38;21.45;;;;;;;16.54;99.45;98897.22;8515145;27;20043;-72
2022/06/08 05:04:22;;;;;;;31.60;20.25;;;;;;;16.60;99.49;98906.75;8529698;27;20095;-73
2022/06/08 05:08:24;;;;;;;29.58;18.65;;;;;;;16.66;99.89;98905.31;8518469;27;20051;-72
2022/06/08 05:12:26;;;;;;;28.25;17.50;;;;;;;16.63;100.00;98900.56;8497324;27;20047;-72
2022/06/08 05:16:27;;;;;;;25.00;17.50;;;;;;;16.69;99.90;98910.06;8472646;27;20405;-72
2022/06/08 05:20:29;;;;;;;28.23;18.65;;;;;;;16.77;99.78;98906.34;8522446;27;20058;-73
2022/06/08 05:24:30;;;;;;;27.17;18.38;;;;;;;16.93;99.46;98909.84;8492670;27;20035;-72
2022/06/08 05:28:31;;;;;;;29.33;18.90;;;;;;;17.05;98.96;98901.56;8529552;27;20408;-73
2022/06/08 05:32:32;;;;;;;24.73;17.45;;;;;;;17.20;98.59;98898.00;8510103;27;20047;-73
2022/06/08 05:36:33;;;;;;;21.17;14.40;;;;;;;17.35;97.67;98898.28;8529247;27;20055;-73
2022/06/08 05:40:37;;;;;;;19.65;13.88;;;;;;;17.46;97.03;98899.28;8468168;27;20067;-73
2022/06/08 05:44:38;;;;;;;18.55;11.50;;;;;;;17.55;95.34;98899.91;8510481;27;20420;-73
2022/06/08 05:48:39;;;;;;;12.60;9.52;;;;;;;17.63;93.82;98904.38;8514332;27;20099;-72
2022/06/08 05:52:40;;;;;;;14.00;9.43;;;;;;;17.68;92.92;98901.34;8524856;27;20070;-72
2022/06/08 05:56:41;;;;;;;16.42;10.75;;;;;;;17.71;91.14;98900.63;8528910;27;20051;-71
2022/06/08 06:00:43;;;;;;;21.75;10.27;;;;;;;17.69;89.76;98892.00;8524939;27;20559;-72
2022/06/08 06:04:44;;;;;;;15.85;9.65;;;;;;;17.71;89.57;98895.19;8518304;27;20039;-72
2022/06/08 06:08:48;;;;;;;16.48;9.32;;;;;;;17.72;88.97;98896.72;8504706;27;20043;-72
2022/06/08 06:12:49;;;;;;;11.90;7.25;;;;;;;17.76;88.76;98903.06;8506196;27;20457;-73
2022/06/08 06:16:49;;;;;;;10.73;7.57;;;;;;;17.83;87.39;98903.19;8487525;27;20047;-71
2022/06/08 06:20:51;;;;;;;12.75;8.00;;;;;;;17.93;85.17;98910.78;8530960;27;20045;-72
2022/06/08 06:24:52;;;;;;;10.75;7.70;;;;;;;17.99;85.26;98895.69;8534700;27;20061;-72
2022/06/08 06:28:54;;;;;;;15.18;7.72;;;;;;;18.12;85.13;98891.66;8534611;27;20039;-72
2022/06/08 06:32:54;;;;;;;13.25;7.13;;;;;;;18.11;85.20;98892.81;8519780;27;20066;-72
2022/06/08 06:36:58;;;;;;;8.95;6.65;;;;;;;18.19;85.03;98892.94;8534461;27;20042;-72
2022/06/08 06:40:59;;;;;;;9.43;6.72;;;;;;;18.23;84.14;98888.31;8520299;27;20061;-73
2022/06/08 06:45:00;;;;;;;9.35;6.18;;;;;;;18.25;82.67;98896.91;8513974;27;20044;-71
2022/06/08 06:49:01;;;;;;;10.75;5.80;;;;;;;18.19;82.44;98904.63;8499685;27;20413;-73
2022/06/08 06:53:02;;;;;;;7.68;5.85;;;;;;;18.20;81.28;98906.22;8510303;27;20076;-73
2022/06/08 06:57:03;;;;;;;10.77;5.68;;;;;;;18.24;80.86;98900.84;8533950;27;20511;-72
2022/06/08 07:01:05;;;;;;;9.82;4.82;;;;;;;18.24;80.79;98906.31;8473488;27;20489;-73
2022/06/08 07:05:08;;;;;;;8.15;4.70;;;;;;;18.30;79.75;98899.34;8499551;27;20054;-72
2022/06/08 07:09:10;;;;;;;8.27;6.22;;;;;;;18.39;79.37;98897.97;8478659;27;20042;-72
2022/06/08 07:13:11;;;;;;;11.50;6.45;;;;;;;18.51;78.46;98905.19;8533255;27;20046;-72
2022/06/08 07:17:12;;;;;;;10.50;5.97;;;;;;;18.63;79.07;98891.34;8504565;27;20461;-72
2022/06/08 07:21:12;;;;;;;12.75;7.03;;;;;;;18.77;78.98;98888.06;8514848;27;20125;-72
2022/06/08 07:25:14;;;;;;;12.57;6.55;;;;;;;18.85;78.74;98885.03;8522940;27;20051;-73
2022/06/08 07:29:16;;;;;;;15.38;9.63;;;;;;;18.94;79.73;98880.09;8513710;27;20077;-72
2022/06/08 07:33:17;;;;;;;14.20;9.70;;;;;;;19.03;80.15;98885.31;8518118;27;20055;-72
2022/06/08 07:37:18;;;;;;;13.23;9.82;;;;;;;19.12;80.38;98890.50;8495722;27;20047;-72
2022/06/08 07:41:19;;;;;;;13.80;10.32;;;;;;;19.16;80.76;98896.81;8531747;27;20129;-73
2022/06/08 07:45:20;;;;;;;15.02;11.18;;;;;;;19.25;81.69;98891.84;8532225;27;20063;-72
2022/06/08 07:49:37;;;;;;;17.40;10.30;;;;;;;19.41;80.92;98886.97;8532027;27;20103;-72
2022/06/08 07:53:39;;;;;;;16.02;9.45;;;;;;;19.67;80.34;98880.69;8531737;27;20066;-72
2022/06/08 07:57:40;;;;;;;15.07;11.80;;;;;;;19.87;80.19;98886.75;8524820;27;20345;-73
2022/06/08 08:01:41;;;;;;;13.85;10.32;;;;;;;20.06;79.36;98878.34;8523944;27;20057;-73
2022/06/08 08:05:43;;;;;;;13.48;9.93;;;;;;;20.33;76.91;98888.03;8502387;27;20574;-72
2022/06/08 08:09:44;;;;;;;13.35;9.23;;;;;;;20.25;73.35;98881.66;8498622;27;20063;-72
2022/06/08 08:13:45;;;;;;;16.85;8.95;;;;;;;20.35;74.21;98885.69;8516523;27;20046;-73
2022/06/08 08:17:46;;;;;;;13.38;7.60;;;;;;;20.47;73.99;98877.16;8516608;27;20465;-72
2022/06/08 08:21:48;;;;;;;11.05;8.30;;;;;;;20.56;73.89;98880.38;8530621;27;20480;-72
2022/06/08 08:25:49;;;;;;;11.10;8.93;;;;;;;20.67;74.20;98878.50;8501274;27;20111;-73
2022/06/08 08:29:51;;;;;;;10.90;8.13;;;;;;;20.64;73.93;98881.22;8501840;27;20039;-72
2022/06/08 08:33:52;;;;;;;11.20;7.00;;;;;;;20.67;71.42;98885.97;8519713;27;20520;-72
2022/06/08 08:37:53;;;;;;;11.95;6.70;;;;;;;20.77;69.40;98878.97;8526993;27;20049;-72
2022/06/08 08:46:21;;;;;;;10.98;7.80;;;;;;;21.13;67.23;98875.28;8530189;27;20400;-73
2022/06/08 08:50:33;;;;;;;9.40;6.57;;;;;;;21.37;67.63;98885.59;8530540;27;20053;-72
2022/06/08 08:54:38;;;;;;;14.82;6.22;;;;;;;21.60;68.49;98876.28;8515370;27;20084;-72
2022/06/08 08:58:42;;;;;;;10.32;6.40;;;;;;;21.75;67.29;98883.41;8515235;27;20100;-73
2022/06/08 09:07:16;;;;;;;11.75;8.00;;;;;;;21.95;66.16;98870.91;8485298;27;20038;-73
2022/06/08 09:11:21;;;;;;;12.23;6.88;;;;;;;22.09;65.87;98870.16;8517033;27;20568;-72
2022/06/08 09:15:44;;;;;;;;;;;;;;;22.22;65.96;98869.38;8530223;27;20054;-72
2022/06/08 09:19:47;;;;;;;11.07;6.32;;;;;;;22.28;65.25;98859.56;8516523;27;19975;-72
2022/06/08 09:23:51;;;;;;;8.77;6.05;;;;;;;22.31;65.80;98867.03;8514812;27;20436;-72
2022/06/08 09:27:53;;;;;;;11.05;5.03;;;;;;;22.29;65.68;98863.91;8529165;27;20034;-72
2022/06/08 09:31:53;;;;;;;10.13;4.80;;;;;;;22.25;65.73;98863.13;8529285;27;20079;-72
2022/06/08 09:36:03;;;;;;;8.73;6.43;;;;;;;22.31;64.14;98867.03;8514822;27;20053;-73
2022/06/08 09:40:05;;;;;;;8.35;6.25;;;;;;;22.42;62.56;98860.75;8461834;28;20047;-72
2022/06/08 09:44:20;;;;;;;12.65;6.30;;;;;;;22.53;60.50;98856.81;8526529;27;20043;-72
2022/06/08 09:53:39;;;;;;;11.70;6.32;;;;;;;22.54;63.19;98846.59;8533015;27;20054;-72
2022/06/08 09:57:53;;;;;;;9.13;6.10;;;;;;;22.76;63.26;98837.16;8362848;28;20049;-73
2022/06/08 10:01:54;;;;;;;12.98;5.85;;;;;;;22.82;63.85;98841.06;8345993;28;20045;-73
2022/06/08 10:06:32;;;;;;;10.13;5.93;;;;;;;22.83;63.81;98831.66;8324576;28;20637;-74
2022/06/08 10:10:38;;;;;;;10.05;5.30;;;;;;;22.83;64.09;98828.88;8341615;28;20049;-73
2022/06/08 10:14:47;;;;;;;6.78;4.88;;;;;;;22.79;63.26;98836.34;8348517;28;20110;-71
2022/06/08 10:18:55;;;;;;;6.22;4.18;;;;;;;22.77;63.45;98822.22;8362294;28;20049;-73
2022/06/08 10:23:00;;;;;;;9.60;4.75;;;;;;;22.81;61.02;98822.97;8328408;28;20044;-72
2022/06/08 10:27:15;;;;;;;7.63;4.03;;;;;;;22.67;62.00;98828.50;8331495;28;20049;-73
2022/06/08 10:31:21;;;;;;;8.02;4.43;;;;;;;22.66;62.47;98826.91;8361906;28;20064;-72
2022/06/08 10:35:48;;;;;;;5.80;3.90;;;;;;;22.72;62.58;98836.38;8504859;27;20039;-72
2022/06/08 10:39:50;;;;;;;8.40;4.50;;;;;;;22.71;60.31;98827.34;8497308;27;20053;-73
2022/06/08 10:43:51;;;;;;;9.95;5.53;;;;;;;22.64;61.87;98823.75;8505547;27;20518;-72
2022/06/08 10:47:58;;;;;;;8.05;4.47;;;;;;;22.62;62.64;98826.16;8519586;27;20078;-72
2022/06/08 10:52:32;;;;;;;12.70;4.95;;;;;;;22.79;61.97;98828.09;8466676;27;20038;-73
2022/06/08 10:56:35;;;;;;;6.65;5.00;;;;;;;22.75;62.23;98813.56;8335161;28;20062;-72
2022/06/08 11:01:05;;;;;;;9.88;5.22;;;;;;;22.81;59.40;98819.44;8325691;28;20053;-72
2022/06/08 11:05:05;;;;;;;9.43;4.95;;;;;;;22.95;59.00;98817.44;8294979;28;20091;-73
2022/06/08 11:09:26;;;;;;;10.55;5.10;;;;;;;23.12;56.90;98810.28;8294716;28;20049;-73
2022/06/08 11:13:32;;;;;;;10.57;4.25;;;;;;;23.24;57.37;98806.31;8294590;28;20115;-72
2022/06/08 11:17:39;;;;;;;6.75;4.25;;;;;;;23.44;57.38;98799.13;8294537;28;20571;-72
2022/06/08 11:21:47;;;;;;;8.77;3.45;;;;;;;23.58;57.88;98804.63;8290726;28;20129;-72
2022/06/08 11:25:52;;;;;;;4.13;2.87;;;;;;;23.77;56.76;98801.34;8294414;28;20076;-71
2022/06/08 11:29:56;;;;;;;4.65;2.50;;;;;;;24.07;54.21;98802.69;8278071;28;20567;-72
2022/06/08 11:34:16;;;;;;;5.38;1.90;;;;;;;24.23;52.40;98805.75;8421421;27;20481;-72
2022/06/08 11:38:46;;;;;;;4.47;2.22;;;;;;;24.36;50.25;98793.03;8503018;27;20053;-73
2022/06/08 11:43:18;;;;;;;6.60;2.10;;;;;;;24.49;51.89;98788.56;8425855;28;20044;-72
2022/06/08 11:47:48;;;;;;;6.30;1.88;;;;;;;24.35;50.50;98797.00;8402262;28;20055;-73
2022/06/08 11:51:50;;;;;;;5.90;1.80;;;;;;;24.58;47.96;98791.66;8425647;28;20054;-72
2022/06/08 11:56:05;;;;;;;7.00;2.20;;;;;;;24.80;45.85;98784.69;8411529;28;20415;-72
2022/06/08 12:00:19;;;;;;;5.00;2.03;;;;;;;24.58;44.87;98777.84;8398635;28;20090;-72
2022/06/08 12:04:24;;;;;;;6.28;2.10;;;;;;;24.60;46.76;98788.47;8411292;28;20081;-73
2022/06/08 12:08:58;;;;;;;4.95;2.35;;;;;;;24.72;46.89;98787.94;8377842;28;20068;-72
2022/06/08 12:12:58;;;;;;;4.85;2.20;;;;;;;24.87;47.66;98780.28;8358167;28;20363;-72
2022/06/08 12:17:00;;;;;;;8.85;2.38;;;;;;;25.03;47.43;98783.28;8391687;28;20094;-73
2022/06/08 12:21:08;;;;;;;4.32;1.95;;;;;;;25.05;45.43;98772.63;8391262;28;20052;-72
2022/06/08 12:25:17;;;;;;;3.30;1.98;;;;;;;25.20;45.06;98774.00;8391387;28;20800;-72
2022/06/08 12:29:35;;;;;;;3.42;2.10;;;;;;;25.25;45.18;98765.25;8390978;28;20052;-72
2022/06/08 12:33:36;;;;;;;1.90;1.70;;;;;;;25.04;47.27;98754.47;8391135;28;20048;-72
2022/06/08 12:37:41;;;;;;;3.15;2.08;;;;;;;24.85;47.71;98757.84;8338409;28;20293;-73
2022/06/08 12:41:45;;;;;;;3.53;2.70;;;;;;;24.91;49.05;98756.19;8390544;28;20194;-72
2022/06/08 12:46:06;;;;;;;7.45;3.60;;;;;;;24.90;49.58;98755.44;8341009;28;20127;-72
2022/06/08 12:50:12;;;;;;;7.07;3.88;;;;;;;24.77;50.26;98752.38;8454920;27;20054;-73
2022/06/08 12:54:18;;;;;;;6.05;4.65;;;;;;;24.85;51.37;98763.38;8494495;27;20046;-72
2022/06/08 12:58:23;;;;;;;8.18;4.57;;;;;;;24.74;51.11;98755.97;8481141;27;20104;-73
2022/06/08 13:02:31;;;;;;;8.57;4.68;;;;;;;24.63;51.59;98760.84;8495588;27;20096;-72
2022/06/08 13:06:32;;;;;;;5.93;4.18;;;;;;;24.47;51.02;98755.09;8495681;27;20050;-72
2022/06/08 13:10:34;;;;;;;5.25;4.10;;;;;;;24.49;51.11;98763.72;8466638;27;20134;-73
2022/06/08 13:14:36;;;;;;;5.93;3.72;;;;;;;24.58;52.04;98755.75;8495198;27;20050;-73
2022/06/08 13:18:37;;;;;;;9.18;3.95;;;;;;;24.76;51.54;98750.81;8480101;27;20046;-72
2022/06/08 13:22:38;;;;;;;6.90;4.60;;;;;;;24.60;52.35;98753.34;8480579;27;20055;-72
2022/06/08 13:26:40;;;;;;;6.80;4.20;;;;;;;24.53;52.37;98753.44;8487752;27;20148;-72
2022/06/08 13:30:42;;;;;;;7.88;4.40;;;;;;;24.55;52.35;98748.28;8487288;28;20050;-73
2022/06/08 13:34:44;;;;;;;7.88;3.70;;;;;;;24.52;52.67;98746.34;8491345;27;20040;-72
2022/06/08 13:38:46;;;;;;;6.28;3.90;;;;;;;24.59;52.31;98743.50;8485144;27;20138;-71
2022/06/08 13:42:48;;;;;;;6.95;3.30;;;;;;;24.97;51.07;98743.50;8422757;28;20494;-73
2022/06/08 13:46:49;;;;;;;9.10;4.03;;;;;;;25.16;51.01;98740.91;8423091;28;20126;-73
2022/06/08 13:50:53;;;;;;;6.65;3.20;;;;;;;25.21;50.70;98742.41;8422916;28;20044;-73
2022/06/08 13:54:57;;;;;;;7.07;3.65;;;;;;;25.57;50.25;98737.97;8422942;28;20056;-71
2022/06/08 13:58:58;;;;;;;5.90;3.42;;;;;;;26.12;50.22;98722.84;8422789;28;20047;-73
2022/06/08 14:03:12;;;;;;;7.50;3.00;;;;;;;26.52;48.71;98728.50;8408888;28;20441;-73
2022/06/08 14:16:03;;;;;;;5.32;3.25;;;;;;;25.78;48.58;98713.97;8422581;28;20044;-73
2022/06/08 14:20:06;;;;;;;6.63;3.30;;;;;;;25.82;47.79;98704.41;8492308;27;20096;-74
2022/06/08 14:24:29;;;;;;;4.78;3.50;;;;;;;25.94;47.63;98705.78;8460297;27;20043;-72
2022/06/08 14:28:31;;;;;;;4.80;3.30;;;;;;;27.09;45.94;98706.78;8531032;27;20419;-73
2022/06/08 14:32:36;;;;;;;5.78;3.03;;;;;;;27.00;46.33;98691.97;8520021;27;20047;-72
2022/06/08 15:18:46;;;;;;;6.05;2.58;;;;;;;32.37;33.04;98656.28;6653493;27;20525;-73
2022/06/08 15:22:49;;;;;;;3.60;2.33;;;;;;;31.12;34.37;98654.28;8480989;27;20038;-73
2022/06/08 15:26:50;;;;;;;4.13;2.35;;;;;;;30.84;34.52;98655.31;8522553;27;20074;-73
2022/06/08 15:30:52;;;;;;;4.22;2.17;;;;;;;30.42;35.17;98647.28;8503370;27;20396;-72
2022/06/08 15:34:55;;;;;;;4.50;2.50;;;;;;;29.64;36.57;98661.09;8523089;27;20051;-73
2022/06/08 15:38:57;;;;;;;4.40;2.42;;;;;;;29.08;36.66;98651.75;8526357;27;20047;-72
2022/06/08 15:42:58;;;;;;;3.60;2.88;;;;;;;28.84;37.46;98643.72;8509767;27;20078;-72
2022/06/08 15:47:04;;;;;;;4.82;2.25;;;;;;;28.49;37.98;98644.72;8512007;27;20047;-74
2022/06/08 15:51:13;;;;;;;5.70;2.67;;;;;;;28.02;39.04;98639.59;8508497;27;20092;-73
2022/06/08 15:55:19;;;;;;;5.75;2.10;;;;;;;27.70;39.92;98628.56;8519489;27;20141;-73
2022/06/08 15:59:23;;;;;;;4.72;2.58;;;;;;;27.58;39.81;98632.03;8511619;27;20477;-73
2022/06/08 16:03:24;;;;;;;7.45;3.28;;;;;;;27.13;40.85;98624.34;8505959;27;20045;-72
2022/06/08 16:07:26;;;;;;;6.43;3.00;;;;;;;26.70;42.07;98623.72;8531298;27;20035;-73
2022/06/08 16:11:28;;;;;;;7.72;3.28;;;;;;;26.87;42.14;98625.31;8515985;27;20047;-72
2022/06/08 16:15:30;;;;;;;5.45;2.90;;;;;;;26.99;42.77;98630.22;8512991;27;20055;-73
2022/06/08 16:19:31;;;;;;;5.75;4.13;;;;;;;27.02;43.14;98618.25;8530840;27;20499;-73
2022/06/08 16:23:32;;;;;;;7.55;3.55;;;;;;;27.16;43.60;98629.03;8530232;27;20087;-73
2022/06/08 16:27:35;;;;;;;3.90;3.45;;;;;;;27.34;43.40;98633.38;8516036;27;20042;-73
2022/06/08 16:31:36;;;;;;;4.18;3.40;;;;;;;27.87;42.04;98632.84;8530528;27;20495;-73
2022/06/08 16:35:38;;;;;;;4.35;3.30;;;;;;;28.70;41.03;98638.53;8518179;27;20536;-73
2022/06/08 16:39:40;;;;;;;6.85;3.20;;;;;;;29.62;38.55;98641.28;8509162;27;20055;-73
2022/06/08 16:43:41;;;;;;;4.32;3.42;;;;;;;30.63;36.90;98629.81;8476809;27;20050;-72
2022/06/08 16:47:44;;;;;;;3.67;3.30;;;;;;;31.57;35.38;98639.72;8530443;27;20066;-72
2022/06/08 16:51:45;;;;;;;8.48;3.35;;;;;;;32.08;34.82;98634.38;8511393;27;20039;-72
2022/06/08 16:55:47;;;;;;;4.30;3.10;;;;;;;31.38;35.67;98638.88;8505616;27;20063;-72
2022/06/08 16:59:49;;;;;;;3.53;3.20;;;;;;;29.28;39.34;98638.41;8511734;27;20134;-72
2022/06/08 17:03:50;;;;;;;3.95;3.08;;;;;;;27.88;42.11;98623.31;8471469;27;20515;-72
2022/06/08 17:07:52;;;;;;;4.25;3.28;;;;;;;27.11;44.13;98626.78;8485584;27;20453;-72
2022/06/08 17:11:55;;;;;;;6.88;3.45;;;;;;;26.05;46.38;98617.84;8468086;27;20069;-72
2022/06/08 17:15:57;;;;;;;5.65;3.28;;;;;;;25.87;46.97;98620.16;8505461;27;20120;-72
2022/06/08 17:19:59;;;;;;;4.85;3.53;;;;;;;25.60;47.76;98612.69;8518240;27;20069;-75
2022/06/08 17:24:00;;;;;;;6.07;3.65;;;;;;;25.23;48.87;98612.88;8516139;27;20572;-72
2022/06/08 17:28:02;;;;;;;10.23;3.97;;;;;;;24.95;49.73;98607.81;8455978;27;20031;-73
2022/06/08 17:32:07;;;;;;;10.15;3.42;;;;;;;24.71;50.41;98599.41;8512770;27;20405;-72
2022/06/08 17:36:09;;;;;;;4.80;3.60;;;;;;;24.42;50.86;98592.69;8459776;27;20549;-72
2022/06/08 17:40:13;;;;;;;5.10;3.40;;;;;;;24.08;51.68;98594.63;8425280;27;20099;-72
2022/06/08 17:44:14;;;;;;;4.30;3.03;;;;;;;23.77;52.19;98597.31;8483049;27;20047;-72
2022/06/08 17:48:16;;;;;;;6.45;3.35;;;;;;;23.56;52.54;98603.03;8510647;27;20396;-72
2022/06/08 17:52:22;;;;;;;3.95;3.40;;;;;;;23.36;53.17;98590.97;8516147;27;20179;-73
2022/06/08 17:56:24;;;;;;;6.43;3.65;;;;;;;23.17;53.53;98587.56;8503112;27;20500;-71
2022/06/08 18:00:26;;;;;;;6.80;3.35;;;;;;;23.10;53.73;98593.13;8514139;27;20419;-72
2022/06/08 18:04:28;;;;;;;5.85;3.38;;;;;;;23.00;54.10;98593.97;8533456;27;20154;-72
2022/06/08 18:08:29;;;;;;;4.60;3.72;;;;;;;22.83;55.40;98589.38;8523529;27;20104;-72
2022/06/08 18:12:33;;;;;;;6.28;3.88;;;;;;;22.71;56.14;98592.59;8496795;27;20053;-72
2022/06/08 18:16:34;;;;;;;4.88;4.13;;;;;;;22.55;56.79;98583.97;8484716;27;20122;-72
2022/06/08 18:20:41;;;;;;;7.47;4.35;;;;;;;22.40;57.27;98587.97;8502209;27;20057;-72
2022/06/08 18:24:43;;;;;;;7.95;5.55;;;;;;;22.24;58.00;98591.97;8534909;27;20047;-72
2022/06/08 18:28:46;;;;;;;7.50;4.90;;;;;;;22.04;58.87;98599.13;8523909;27;20134;-72
2022/06/08 18:32:47;;;;;;;7.28;5.00;;;;;;;21.90;59.52;98596.34;8496665;27;20049;-72
2022/06/08 18:36:49;;;;;;;8.88;5.28;;;;;;;21.75;60.34;98586.56;8401718;27;20050;-72
2022/06/08 18:40:51;;;;;;;9.05;7.15;;;;;;;21.63;60.74;98589.72;8527506;27;20053;-72
2022/06/08 18:44:53;;;;;;;12.13;8.20;;;;;;;21.44;61.38;98586.22;8530692;27;20039;-72
2022/06/08 18:48:56;;;;;;;8.73;6.70;;;;;;;21.24;62.04;98585.03;8523359;27;20043;-72
2022/06/08 18:52:59;;;;;;;13.15;7.25;;;;;;;21.01;62.80;98590.09;8519725;27;20134;-72
2022/06/08 18:57:01;;;;;;;7.55;6.40;;;;;;;20.85;63.29;98595.16;8511568;27;20070;-72
2022/06/08 19:01:03;;;;;;;7.50;5.78;;;;;;;20.69;64.09;98603.72;8533758;27;20114;-73
2022/06/08 19:05:08;;;;;;;6.95;5.57;;;;;;;20.55;64.51;98604.47;8492865;27;20581;-72
2022/06/08 19:09:10;;;;;;;7.38;6.15;;;;;;;20.40;64.95;98613.03;8508301;27;20461;-73
2022/06/08 19:13:12;;;;;;;12.90;8.40;;;;;;;20.31;65.14;98621.59;8531250;27;20393;-72
2022/06/08 19:17:14;;;;;;;11.43;7.43;;;;;;;20.23;65.40;98630.94;8518431;27;20043;-72
2022/06/08 19:21:16;;;;;;;14.55;9.23;;;;;;;20.16;65.71;98630.91;8515546;27;20111;-72
2022/06/08 19:25:18;;;;;;;18.73;9.52;;;;;;;20.12;65.75;98641.06;8468227;27;20043;-73
2022/06/08 19:29:21;;;;;;;16.65;9.02;;;;;;;20.06;66.23;98642.59;8456407;27;20054;-73
2022/06/08 19:33:35;;;;;;;15.45;7.78;;;;;;;19.95;66.63;98641.75;8454493;27;20062;-72
2022/06/08 19:37:37;;;;;;;12.93;7.43;;;;;;;19.92;66.95;98637.03;8470308;27;20054;-72
2022/06/08 19:41:45;;;;;;;12.10;7.10;;;;;;;19.87;67.23;98640.13;8486857;27;20133;-73
2022/06/08 19:45:49;;;;;;;9.75;6.43;;;;;;;19.81;67.61;98640.50;8504813;27;20076;-71
2022/06/08 19:49:52;;;;;;;11.95;6.90;;;;;;;19.77;67.95;98647.88;8503377;27;20039;-71
2022/06/08 19:53:54;;;;;;;10.73;6.18;;;;;;;19.69;68.69;98645.47;8442395;27;20404;-72
2022/06/08 19:57:57;;;;;;;12.13;6.75;;;;;;;19.61;68.95;98639.16;8509127;27;20067;-72
2022/06/08 20:02:00;;;;;;;8.93;6.70;;;;;;;19.50;69.38;98638.31;8480270;27;20053;-73